»·PEaware :: DAL21 KLAS-KLAX

DAL21 :: KLAS-KLAX

FLIGHT INFORMATION

Flight Status: Arrived
Operator:
Delta Air Lines
More flights by this operator :: More flights under this callsign
Pilot: Ben F. (13029)
Aircraft: MCDONNELL-DOUGLAS MD-88
(MD88)
More flights by this aircraft type
Origin: KLAS McCarran Intl
United States
Destination: KLAX Los Angeles Intl
United States
More flights between these airports :: More routes between these airports
Route: BOACH8 RIKII SHTNR ANJLL3
File this flight plan on PilotEdge
Remarks: PBN / A1B2 DOF / 180728 REG / N888SB OPR / DAL PER / C RMK / TCAS SIMBRIEF
Altitude:
(Current/Filed)
30,000ft
Speed:
(Current/Filed)
447kts
Departed: 27-Jul-18 05:21 PM
Arrived: 27-Jul-18 06:08 PM
Distance/Time
Traveled:
205nm/0:47
Distance/Time
To Go:
Arrived

Flight Plot

Page will automatically refresh every two minutes.

Flight plan parsing failed; only flown route is shown


Map Options




Map Legend


Flown Route
Filed Route
Departure Airport
Arrival Airport
Navaid (VOR, NDB)
Fix

Horizontal Profiles

Position Reports

Time Latitude Longitude Heading Altitude Ground
Speed
27-Jul-18 16:56 36.079729 -115.139524 355 2117ft 0kts
27-Jul-18 16:57 36.079729 -115.139524 355 2117ft 0kts
27-Jul-18 16:58 36.079729 -115.139524 355 2117ft 0kts
27-Jul-18 16:59 36.079729 -115.139524 355 2117ft 0kts
27-Jul-18 17:00 36.079729 -115.139524 355 2117ft 0kts
27-Jul-18 17:01 36.079729 -115.139524 355 2117ft 0kts
27-Jul-18 17:02 36.079729 -115.139524 355 2117ft 0kts
27-Jul-18 17:03 36.079729 -115.139524 355 2117ft 0kts
27-Jul-18 17:04 36.079729 -115.139524 355 2117ft 0kts
27-Jul-18 17:05 36.079729 -115.139524 355 2117ft 0kts
27-Jul-18 17:06 36.079729 -115.139524 355 2117ft 0kts
27-Jul-18 17:07 36.079729 -115.139524 355 2117ft 0kts
27-Jul-18 17:08 36.079729 -115.139524 355 2117ft 0kts
27-Jul-18 17:09 36.079441 -115.139408 325 2117ft 2kts
27-Jul-18 17:10 36.079160 -115.138817 279 2117ft 2kts
27-Jul-18 17:11 36.079119 -115.138560 284 2117ft 0kts
27-Jul-18 17:12 36.079119 -115.138560 284 2117ft 0kts
27-Jul-18 17:13 36.079120 -115.138561 283 2117ft 0kts
27-Jul-18 17:14 36.079052 -115.139176 240 2117ft 12kts
27-Jul-18 17:15 36.078230 -115.142183 267 2117ft 2kts
27-Jul-18 17:16 36.078332 -115.146942 226 2117ft 9kts
27-Jul-18 17:17 36.078018 -115.152312 270 2117ft 24kts
27-Jul-18 17:18 36.078017 -115.158812 269 2117ft 18kts
27-Jul-18 17:19 36.078006 -115.161585 269 2117ft 22kts
27-Jul-18 17:20 36.077537 -115.163334 209 2117ft 0kts
27-Jul-18 17:21 36.076785 -115.163629 167 2117ft 17kts
27-Jul-18 17:22 36.076442 -115.144525 91 2250ft 168kts
27-Jul-18 17:23 36.076632 -115.082849 93 3942ft 182kts
27-Jul-18 17:24 36.074495 -115.017086 105 5649ft 220kts
27-Jul-18 17:25 36.015900 -114.985778 207 7757ft 283kts
27-Jul-18 17:26 35.956102 -115.076850 218 10407ft 339kts
27-Jul-18 17:27 35.890090 -115.132593 212 13116ft 353kts
27-Jul-18 17:28 35.805885 -115.197249 212 15996ft 364kts
27-Jul-18 17:29 35.719041 -115.263480 212 18535ft 374kts
27-Jul-18 17:30 35.619444 -115.298496 181 20821ft 389kts
27-Jul-18 17:31 35.510292 -115.301364 184 22881ft 400kts
27-Jul-18 17:32 35.412465 -115.349237 226 24756ft 400kts
27-Jul-18 17:33 35.320923 -115.427283 214 26885ft 401kts
27-Jul-18 17:34 35.227700 -115.498888 214 29104ft 396kts
27-Jul-18 17:35 35.147791 -115.560159 214 30053ft 388kts
27-Jul-18 17:36 35.070866 -115.646196 228 30073ft 385kts
27-Jul-18 17:37 34.998157 -115.739030 227 30106ft 385kts
27-Jul-18 17:38 34.924099 -115.833206 226 30104ft 386kts
27-Jul-18 17:39 34.851013 -115.926196 226 30111ft 387kts
27-Jul-18 17:40 34.777142 -116.020286 226 30102ft 387kts
27-Jul-18 17:41 34.702750 -116.114609 226 30101ft 387kts
27-Jul-18 17:42 34.628526 -116.208554 226 30095ft 387kts
27-Jul-18 17:43 34.554460 -116.302382 226 30098ft 387kts
27-Jul-18 17:44 34.480004 -116.396797 226 30098ft 387kts
27-Jul-18 17:45 34.409378 -116.495362 238 29699ft 398kts
27-Jul-18 17:46 34.359570 -116.615984 242 27908ft 405kts
27-Jul-18 17:47 34.310109 -116.737424 242 25898ft 405kts
27-Jul-18 17:48 34.260827 -116.859565 242 23016ft 410kts
27-Jul-18 17:49 34.211612 -116.984722 246 20291ft 406kts
27-Jul-18 17:50 34.179553 -117.111367 257 18811ft 381kts
27-Jul-18 17:51 34.150543 -117.234373 244 16562ft 392kts
27-Jul-18 17:52 34.110009 -117.355455 248 14080ft 382kts
27-Jul-18 17:53 34.079637 -117.472678 253 11711ft 349kts
27-Jul-18 17:54 34.046256 -117.573625 246 10580ft 313kts
27-Jul-18 17:55 34.013232 -117.664948 246 9745ft 284kts
27-Jul-18 17:56 33.999690 -117.753522 263 9051ft 246kts
27-Jul-18 17:57 33.993036 -117.824961 262 8202ft 197kts
27-Jul-18 17:58 33.987102 -117.885882 262 7099ft 177kts
27-Jul-18 17:59 33.981332 -117.944489 262 6000ft 175kts
27-Jul-18 18:00 33.975620 -118.002243 261 4894ft 172kts
27-Jul-18 18:01 33.969997 -118.058897 261 4162ft 170kts
27-Jul-18 18:02 33.964420 -118.115133 261 3725ft 169kts
27-Jul-18 18:03 33.958842 -118.170929 262 3313ft 167kts
27-Jul-18 18:04 33.953801 -118.220864 262 2441ft 141kts
27-Jul-18 18:05 33.949112 -118.267019 262 1634ft 137kts
27-Jul-18 18:06 33.944520 -118.312480 263 1165ft 136kts
27-Jul-18 18:07 33.939982 -118.357010 262 548ft 127kts
27-Jul-18 18:08 33.935926 -118.396639 264 109ft 91kts
27-Jul-18 18:09 33.936119 -118.403239 308 109ft 2kts
27-Jul-18 18:10 33.936001 -118.406566 262 109ft 25kts
27-Jul-18 18:11 33.938271 -118.409152 5 109ft 8kts
27-Jul-18 18:12 33.939905 -118.405478 357 109ft 9kts
27-Jul-18 18:13 33.940215 -118.404958 80 109ft 0kts

Navigation Log

Ident Type
Flight plan parsing failed, navigation log unavailable